Latest Coastal Weather Observations for Mandora

IDW60701

Issued at 10:53 am WST Tuesday 25 April 2017 (issued every 10 minutes, with the page automatically refreshed every 10 minutes)

About coastal observations | Map of coastal stations | Coastal observations for WA | Marine services | Other Formats
Station Details ID: 004019 Name: MANDORA Lat: -19.74 Lon: 120.84 Height: 7.5 m
Data from the previous 72 hours. | See also: Recent months at Mandora
Date/Time
WST
Temp
°C
Wind Pressure Rain since
9am
mm
Weather Cloud Vis
km
Sea
Height
m
Swell
Dir  Spd
kts
Gust
kts
hPa Trend Height
m
Period
s
Dir
25/10:30am 34.4 SSE 7 11 1013.1 - 0.0 - - - - - - -
25/10:00am 33.5 SE 8 13 1013.4 - 0.0 - - - - - - -
25/09:30am 33.0 SSE 7 12 1013.6 - 0.0 - - - - - - -
25/09:00am 31.7 SE 7 11 1013.6 - 0.0 - - - - - - -
25/08:30am 30.4 S 9 12 1013.4 - 0.0 - - - - - - -
25/08:00am 28.2 S 7 11 1013.3 - 0.0 - - - - - - -
25/07:30am 26.1 S 6 10 1013.2 - 0.0 - - - - - - -
25/07:00am 24.7 S 6 8 1013.1 - 0.0 - - - - - - -
25/06:30am 23.5 S 5 7 1012.7 - 0.0 - - - - - - -
25/06:00am 23.3 S 6 9 1012.6 - 0.0 - - - - - - -
25/05:30am 22.8 SSW 5 6 1012.3 - 0.0 - - - - - - -
25/05:00am 22.8 SSW 5 5 1012.0 - 0.0 - - - - - - -
25/04:30am 23.1 SSW 4 5 1012.0 - 0.0 - - - - - - -
25/04:00am 23.4 SSW 5 7 1012.1 - 0.0 - - - - - - -
25/03:30am 23.5 SW 5 7 1012.0 - 0.0 - - - - - - -
25/03:00am 23.2 SSW 5 6 1011.8 - 0.0 - - - - - - -
25/02:30am 23.5 SW 6 7 1012.0 - 0.0 - - - - - - -
25/02:00am 23.3 SSW 5 5 1012.1 - 0.0 - - - - - - -
25/01:30am 23.3 WSW 3 4 1012.3 - 0.0 - - - - - - -
25/01:00am 23.8 SW 5 6 1012.4 - 0.0 - - - - - - -
25/12:30am 24.1 SW 3 4 1012.7 - 0.0 - - - - - - -
25/12:00am 24.6 SW 4 6 1012.7 - 0.0 - - - - - - -
 
Date/Time
WST
Temp
°C
Wind Pressure Rain since
9am
mm
Weather Cloud Vis
km
Sea
Height
m
Swell
Dir  Spd
kts
Gust
kts
hPa Trend Height
m
Period
s
Dir
24/11:30pm 24.8 WSW 3 5 1012.7 - 0.0 - - - - - - -
24/11:00pm 25.0 WSW 5 6 1012.7 - 0.0 - - - - - - -
24/10:30pm 25.3 WSW 5 6 1012.6 - 0.0 - - - - - - -
24/10:00pm 25.8 WSW 6 9 1012.8 - 0.0 - - - - - - -
24/09:30pm 25.9 SW 6 9 1012.7 - 0.0 - - - - - - -
24/09:00pm 26.0 WSW 6 8 1012.7 - 0.0 - - - - - - -
24/08:30pm 26.1 WSW 5 7 1012.7 - 0.0 - - - - - - -
24/08:00pm 26.1 WSW 4 6 1012.4 - 0.0 - - - - - - -
24/07:30pm 26.5 WSW 5 7 1012.0 - 0.0 - - - - - - -
24/07:00pm 26.8 WSW 5 6 1011.6 - 0.0 - - - - - - -
24/06:30pm 27.7 W 4 5 1011.3 - 0.0 - - - - - - -
24/06:00pm 28.4 WNW 4 6 1011.0 - 0.0 - - - - - - -
24/05:30pm 29.7 NW 6 8 1010.7 - 0.0 - - - - - - -
24/05:00pm 31.3 WNW 8 11 1010.5 - 0.0 - - - - - - -
24/04:30pm 32.4 WNW 8 11 1010.3 - 0.0 - - - - - - -
24/04:00pm 33.1 WNW 8 12 1010.0 - 0.0 - - - - - - -
24/03:30pm 33.4 NW 10 14 1010.1 - 0.0 - - - - - - -
24/03:00pm 34.7 NW 8 11 1010.0 - 0.0 - - - - - - -
24/02:30pm 35.0 NW 9 13 1010.0 - 0.0 - - - - - - -
24/02:00pm 35.2 WNW 8 12 1010.3 - 0.0 - - - - - - -
24/01:30pm 36.2 WSW 4 10 1010.5 - 0.0 - - - - - - -
24/01:00pm 35.7 W 5 8 1011.0 - 0.0 - - - - - - -
24/12:30pm 36.2 SSE 4 14 1011.2 - 0.0 - - - - - - -
24/12:00pm 35.5 SE 6 11 1011.6 - 0.0 - - - - - - -
24/11:30am 34.8 SE 7 12 1012.1 - 0.0 - - - - - - -
24/11:00am 34.9 SE 8 13 1012.8 - 0.0 - - - - - - -
24/10:30am 33.9 SE 7 12 1013.3 - 0.0 - - - - - - -
24/10:00am 33.1 SE 9 14 1013.7 - 0.0 - - - - - - -
24/09:30am 32.3 ESE 8 12 1013.9 - 0.0 - - - - - - -
24/09:00am 30.6 SE 8 13 1014.0 - 0.0 - - - - - - -
24/08:30am 29.5 SE 8 11 1013.9 - 0.0 - - - - - - -
24/08:00am 27.7 SE 8 11 1013.8 - 0.0 - - - - - - -
24/07:30am 26.2 SSE 5 8 1013.8 - 0.0 - - - - - - -
24/07:00am 24.5 SSE 4 7 1013.7 - 0.0 - - - - - - -
24/06:30am 23.8 SSE 5 7 1013.4 - 0.0 - - - - - - -
24/06:00am 24.0 SSE 7 9 1013.0 - 0.0 - - - - - - -
24/05:30am 24.2 S 7 9 1012.7 - 0.0 - - - - - - -
24/05:00am 24.6 S 7 10 1012.5 - 0.0 - - - - - - -
24/04:30am 24.4 SSW 6 8 1012.4 - 0.0 - - - - - - -
24/04:00am 24.7 SSW 7 9 1012.3 - 0.0 - - - - - - -
24/03:30am 24.8 SSW 6 8 1012.2 - 0.0 - - - - - - -
24/03:00am 24.8 SSW 7 10 1012.2 - 0.0 - - - - - - -
24/02:30am 24.3 SW 7 9 1012.0 - 0.0 - - - - - - -
24/02:00am 23.3 SW 5 7 1011.9 - 0.0 - - - - - - -
24/01:30am 23.7 SW 5 7 1012.1 - 0.0 - - - - - - -
24/01:00am 23.9 SW 4 5 1012.1 - 0.0 - - - - - - -
24/12:30am 24.6 SW 6 6 1012.3 - 0.0 - - - - - - -
24/12:00am 25.4 SW 6 8 1012.4 - 0.0 - - - - - - -
 
Date/Time
WST
Temp
°C
Wind Pressure Rain since
9am
mm
Weather Cloud Vis
km
Sea
Height
m
Swell
Dir  Spd
kts
Gust
kts
hPa Trend Height
m
Period
s
Dir
23/11:30pm 25.7 SW 7 9 1012.6 - 0.0 - - - - - - -
23/11:00pm 26.0 SW 7 9 1012.8 - 0.0 - - - - - - -
23/10:30pm 26.1 SW 8 12 1012.8 - 0.0 - - - - - - -
23/10:00pm 25.7 SSW 6 8 1012.8 - 0.0 - - - - - - -
23/09:30pm 25.7 SW 6 7 1012.9 - 0.0 - - - - - - -
23/09:00pm 25.4 SW 5 6 1012.8 - 0.0 - - - - - - -
23/08:30pm 25.7 SW 5 6 1012.6 - 0.0 - - - - - - -
23/08:00pm 26.0 WSW 6 7 1012.4 - 0.0 - - - - - - -
23/07:30pm 26.1 WSW 5 6 1011.8 - 0.0 - - - - - - -
23/07:00pm 26.8 W 4 5 1011.4 - 0.0 - - - - - - -
23/06:30pm 27.6 WSW 5 6 1011.1 - 0.0 - - - - - - -
23/06:00pm 28.9 W 5 6 1010.8 - 0.0 - - - - - - -
23/05:30pm 30.5 WNW 4 6 1010.5 - 0.0 - - - - - - -
23/05:00pm 31.8 WNW 5 7 1010.4 - 0.0 - - - - - - -
23/04:30pm 32.6 WNW 7 9 1010.4 - 0.0 - - - - - - -
23/04:00pm 34.7 NW 7 9 1010.1 - 0.0 - - - - - - -
23/03:30pm 34.6 NNW 7 11 1009.9 - 0.0 - - - - - - -
23/03:00pm 34.9 NNW 7 10 1009.9 - 0.0 - - - - - - -
23/02:30pm 35.7 NNE 5 8 1009.9 - 0.0 - - - - - - -
23/02:00pm 36.2 ESE 3 6 1010.1 - 0.0 - - - - - - -
23/01:30pm 36.0 NE 4 7 1010.3 - 0.0 - - - - - - -
23/01:00pm 35.4 SSW 4 7 1010.5 - 0.0 - - - - - - -
23/12:30pm 35.4 SSE 5 8 1011.0 - 0.0 - - - - - - -
23/12:00pm 36.0 E 5 10 1011.6 - 0.0 - - - - - - -
23/11:30am 34.5 SE 6 11 1012.2 - 0.0 - - - - - - -
23/11:00am 33.9 ESE 7 11 1012.7 - 0.0 - - - - - - -
23/10:30am 33.4 SE 7 10 1013.0 - 0.0 - - - - - - -
23/10:00am 32.8 ESE 7 12 1013.6 - 0.0 - - - - - - -
23/09:30am 31.9 SE 7 10 1013.9 - 0.0 - - - - - - -
23/09:00am 30.9 SSE 6 11 1013.9 - 0.0 - - - - - - -
23/08:30am 30.3 SE 7 10 1013.6 - 0.0 - - - - - - -
23/08:00am 27.7 SSE 5 7 1013.7 - 0.0 - - - - - - -
23/07:30am 27.6 SE 4 6 1013.4 - 0.0 - - - - - - -
23/07:00am 26.8 SSE 5 10 1013.2 - 0.0 - - - - - - -
23/06:30am 25.9 S 4 5 1012.9 - 0.0 - - - - - - -
23/06:00am 25.8 E 4 6 1012.4 - 0.0 - - - - - - -
23/05:30am 26.2 E 4 5 1012.1 - 0.0 - - - - - - -
23/05:00am 26.3 SE 5 6 1012.0 - 0.0 - - - - - - -
23/04:30am 26.4 SSW 4 6 1012.1 - 0.0 - - - - - - -
23/04:00am 26.2 SW 5 6 1012.2 - 0.0 - - - - - - -
23/03:30am 26.1 SSW 5 6 1012.2 - 0.0 - - - - - - -
23/03:00am 26.2 SSW 5 6 1012.1 - 0.0 - - - - - - -
23/02:30am 26.7 SSW 7 10 1012.3 - 0.0 - - - - - - -
23/02:00am 26.9 S 7 11 1012.2 - 0.0 - - - - - - -
23/01:30am 26.6 S 12 16 1012.7 - 0.0 - - - - - - -
23/01:00am 26.9 SSW 11 15 1012.9 - 0.0 - - - - - - -
23/12:30am 27.1 SW 6 10 1012.9 - 0.0 - - - - - - -
23/12:00am 26.1 SSW 6 6 1012.9 - 0.0 - - - - - - -
 
Date/Time
WST
Temp
°C
Wind Pressure Rain since
9am
mm
Weather Cloud Vis
km
Sea
Height
m
Swell
Dir  Spd
kts
Gust
kts
hPa Trend Height
m
Period
s
Dir
22/11:30pm 25.7 E 2 4 1012.8 - 0.0 - - - - - - -
22/11:00pm 26.2 ESE 3 5 1013.0 - 0.0 - - - - - - -
22/10:30pm 26.7 SSW 3 4 1013.1 - 0.0 - - - - - - -
22/10:00pm 27.3 SE 3 5 1013.2 - 0.0 - - - - - - -
22/09:30pm 27.5 ESE 3 4 1013.4 - 0.0 - - - - - - -
22/09:00pm 27.5 SW 6 8 1013.0 - 0.0 - - - - - - -
22/08:30pm 27.6 WSW 5 7 1012.7 - 0.0 - - - - - - -
22/08:00pm 28.2 W 5 7 1012.4 - 0.0 - - - - - - -
22/07:30pm 28.7 WNW 3 7 1012.1 - 0.0 - - - - - - -
22/07:00pm 28.8 NW 5 7 1011.7 - 0.0 - - - - - - -
22/06:30pm 29.3 SW 5 7 1011.6 - 0.0 - - - - - - -
22/06:00pm 29.5 WNW 4 6 1011.1 - 0.0 - - - - - - -
22/05:30pm 30.7 WNW 5 8 1010.9 - 0.0 - - - - - - -
22/05:00pm 32.0 NW 7 9 1010.5 - 0.0 - - - - - - -
22/04:30pm 32.7 NW 7 10 1010.2 - 0.0 - - - - - - -
22/04:00pm 33.6 NW 7 11 1010.2 - 0.0 - - - - - - -
22/03:30pm 34.3 NNW 9 14 1010.0 - 0.0 - - - - - - -
22/03:00pm 34.8 N 10 13 1009.9 - 0.0 - - - - - - -
22/02:30pm 35.5 NNE 8 14 1009.8 - 0.0 - - - - - - -
22/02:00pm 36.4 ENE 4 7 1010.3 - 0.0 - - - - - - -
22/01:30pm 36.0 SE 5 10 1010.5 - 0.0 - - - - - - -
22/01:00pm 36.0 E 6 9 1010.9 - 0.0 - - - - - - -
22/12:30pm 35.3 SE 5 9 1011.3 - 0.0 - - - - - - -
22/12:00pm 36.0 ESE 7 13 1011.7 - 0.0 - - - - - - -
22/11:30am 35.4 SE 7 14 1012.5 - 0.0 - - - - - - -
22/11:00am 34.7 ESE 9 17 1013.0 - 0.0 - - - - - - -

Other Formats:

Comma delimited format used in spreadsheet applications
http://www.bom.gov.au/fwo/IDW60701/IDW60701.94200.axf

JavaScript Object Notation format (JSON) in row-major order
http://www.bom.gov.au/fwo/IDW60701/IDW60701.94200.json